Time;durP1;ratioP1;P1;durP2;ratioP2;P2;SDS_P1;SDS_P2;PMS_P1;PMS_P2;Temp;Humidity;BMP_temperature;BMP_pressure;BME280_temperature;BME280_humidity;BME280_pressure;Samples;Min_cycle;Max_cycle;Signal;HPM_P1;HPM_P2
2022/03/12 00:01:37;;;;;;;5.80;3.00;;;18.30;45.10;;;;;;4816867;29;20184;-86
2022/03/12 00:04:06;;;;;;;4.85;3.05;;;18.30;45.20;;;;;;4832775;29;20188;-85
2022/03/12 00:06:37;;;;;;;6.38;3.30;;;18.30;45.10;;;;;;4863107;29;20180;-84
2022/03/12 00:09:08;;;;;;;6.32;3.10;;;18.30;45.20;;;;;;4832212;29;20215;-85
2022/03/12 00:11:35;;;;;;;5.03;3.03;;;18.30;45.00;;;;;;4816559;29;20195;-86
2022/03/12 00:14:03;;;;;;;4.95;3.10;;;18.30;45.30;;;;;;4863070;29;20207;-84
2022/03/12 00:16:30;;;;;;;3.42;2.90;;;18.30;45.30;;;;;;4862410;29;20156;-84
2022/03/12 00:19:00;;;;;;;7.25;3.20;;;18.30;45.20;;;;;;4863092;29;20223;-84
2022/03/12 00:21:27;;;;;;;6.95;3.60;;;18.30;45.30;;;;;;4847746;29;20310;-86
2022/03/12 00:23:58;;;;;;;5.38;3.20;;;18.30;45.30;;;;;;4863205;29;20609;-85
2022/03/12 00:26:24;;;;;;;6.45;3.15;;;18.30;45.00;;;;;;4848696;29;20180;-86
2022/03/12 00:28:54;;;;;;;6.20;2.88;;;18.20;45.30;;;;;;4862826;29;20176;-84
2022/03/12 00:31:20;;;;;;;5.20;3.30;;;18.30;45.40;;;;;;4864081;29;20152;-83
2022/03/12 00:33:48;;;;;;;3.40;2.80;;;18.30;45.50;;;;;;4866604;29;20192;-87
2022/03/12 00:36:17;;;;;;;5.22;2.80;;;18.20;45.40;;;;;;4820006;29;20644;-83
2022/03/12 00:38:45;;;;;;;6.80;2.92;;;18.20;45.40;;;;;;4820603;29;20243;-86
2022/03/12 00:41:13;;;;;;;5.35;3.10;;;18.30;45.30;;;;;;4820180;29;20195;-85
2022/03/12 00:43:39;;;;;;;5.72;3.28;;;18.20;45.60;;;;;;4820022;29;20188;-85
2022/03/12 00:46:05;;;;;;;5.63;3.58;;;18.20;45.40;;;;;;4866552;29;20160;-84
2022/03/12 00:48:32;;;;;;;5.85;3.33;;;18.20;45.60;;;;;;4866708;29;20176;-85
2022/03/12 00:50:58;;;;;;;6.57;3.22;;;18.20;45.40;;;;;;4866402;29;20180;-84
2022/03/12 00:53:28;;;;;;;4.40;2.95;;;18.20;45.50;;;;;;4851393;29;20255;-85
2022/03/12 00:55:54;;;;;;;4.28;3.00;;;18.20;45.50;;;;;;4820106;29;20275;-85
2022/03/12 00:58:21;;;;;;;5.10;3.05;;;18.10;45.50;;;;;;4850990;29;20274;-83
2022/03/12 01:00:52;;;;;;;5.93;3.50;;;18.20;45.60;;;;;;4866351;29;20224;-86
2022/03/12 01:03:18;;;;;;;5.00;3.22;;;18.10;45.70;;;;;;4819650;29;20198;-84
2022/03/12 01:05:53;;;;;;;5.38;2.90;;;18.10;45.40;;;;;;4850762;29;20192;-85
2022/03/12 01:08:19;;;;;;;5.22;3.25;;;18.10;45.60;;;;;;4851099;29;20168;-84
2022/03/12 01:10:46;;;;;;;7.00;2.85;;;18.10;45.30;;;;;;4866343;29;20160;-83
2022/03/12 01:13:16;;;;;;;4.28;2.85;;;18.20;45.70;;;;;;4850743;29;20235;-84
2022/03/12 01:15:45;;;;;;;4.18;3.13;;;18.10;45.40;;;;;;4819456;29;20674;-85
2022/03/12 01:18:16;;;;;;;5.07;3.10;;;18.10;45.40;;;;;;4816535;29;20233;-83
2022/03/12 01:20:45;;;;;;;5.40;3.25;;;18.10;45.70;;;;;;4828533;29;20245;-84
2022/03/12 01:23:13;;;;;;;4.45;3.13;;;18.10;45.90;;;;;;4828329;29;20208;-83
2022/03/12 01:25:40;;;;;;;4.47;2.95;;;18.00;45.60;;;;;;4844576;29;20177;-85
2022/03/12 01:28:06;;;;;;;4.55;3.20;;;18.10;45.90;;;;;;4844475;29;20169;-86
2022/03/12 01:30:32;;;;;;;4.88;3.03;;;18.10;45.80;;;;;;4844295;29;20153;-86
2022/03/12 01:32:59;;;;;;;5.68;3.03;;;18.00;45.80;;;;;;4828937;29;20228;-83
2022/03/12 01:35:26;;;;;;;6.63;3.20;;;18.10;45.60;;;;;;4844287;29;20644;-85
2022/03/12 01:37:54;;;;;;;5.45;3.53;;;18.10;45.90;;;;;;4829126;29;20317;-84
2022/03/12 01:40:20;;;;;;;3.50;2.90;;;18.10;45.80;;;;;;4844207;29;20253;-84
2022/03/12 01:42:46;;;;;;;5.93;3.33;;;18.00;45.60;;;;;;4829167;29;20211;-86
2022/03/12 01:45:12;;;;;;;4.90;3.10;;;18.10;45.90;;;;;;4844332;29;20154;-86
2022/03/12 01:47:38;;;;;;;4.15;3.08;;;18.00;45.80;;;;;;4844230;29;20540;-85
2022/03/12 01:50:06;;;;;;;4.78;3.17;;;18.00;45.90;;;;;;4843909;29;20256;-84
2022/03/12 01:52:33;;;;;;;5.35;3.25;;;18.00;45.50;;;;;;4843886;29;20269;-84
2022/03/12 01:55:01;;;;;;;5.00;2.90;;;18.10;45.90;;;;;;4828355;29;20189;-86
2022/03/12 01:57:29;;;;;;;6.70;3.05;;;18.00;45.80;;;;;;4812880;29;20649;-87
2022/03/12 01:59:57;;;;;;;5.85;3.10;;;18.00;45.90;;;;;;4828057;29;20276;-84
2022/03/12 02:02:24;;;;;;;4.45;3.00;;;18.00;45.90;;;;;;4828042;29;20657;-86
2022/03/12 02:04:54;;;;;;;4.90;3.15;;;18.00;45.60;;;;;;4829557;29;20667;-84
2022/03/12 02:07:25;;;;;;;4.63;3.08;;;18.10;45.90;;;;;;4817187;29;20243;-85
2022/03/12 02:09:52;;;;;;;4.63;2.80;;;18.00;45.70;;;;;;4817368;29;20709;-86
2022/03/12 02:12:20;;;;;;;5.72;3.00;;;18.00;45.70;;;;;;4832134;29;20217;-86
2022/03/12 02:14:47;;;;;;;6.90;3.40;;;18.00;45.90;;;;;;4817428;29;20193;-83
2022/03/12 02:17:12;;;;;;;6.55;3.17;;;18.00;45.80;;;;;;4821668;29;20315;-85
2022/03/12 02:19:40;;;;;;;4.90;3.05;;;18.00;45.60;;;;;;4848262;29;20197;-84
2022/03/12 02:22:08;;;;;;;4.88;3.38;;;18.00;45.70;;;;;;4832909;29;20193;-84
2022/03/12 02:24:35;;;;;;;5.43;3.10;;;18.00;45.90;;;;;;4833008;29;20248;-85
2022/03/12 02:27:06;;;;;;;6.15;3.08;;;18.10;45.70;;;;;;4862349;29;20249;-84
2022/03/12 02:29:34;;;;;;;7.07;4.05;;;18.00;46.00;;;;;;4815625;29;20191;-84
2022/03/12 02:32:03;;;;;;;4.78;3.40;;;18.00;45.90;;;;;;4830848;29;20364;-84
2022/03/12 02:34:38;;;;;;;4.75;3.20;;;18.00;45.80;;;;;;4846355;29;20173;-85
2022/03/12 02:37:04;;;;;;;5.32;3.20;;;18.00;45.90;;;;;;4831041;29;20196;-84
2022/03/12 02:39:34;;;;;;;5.05;3.28;;;18.00;46.00;;;;;;4861673;29;20216;-85
2022/03/12 02:42:01;;;;;;;3.95;3.10;;;18.00;45.70;;;;;;4831055;29;20192;-84
2022/03/12 02:44:31;;;;;;;6.22;3.20;;;17.90;46.00;;;;;;4846567;29;20169;-84
2022/03/12 02:47:22;;;;;;;4.82;3.40;;;17.90;46.10;;;;;;4830403;29;20275;-85
2022/03/12 02:49:59;;;;;;;6.45;2.83;;;18.00;45.90;;;;;;4815916;29;20253;-84
2022/03/12 02:52:28;;;;;;;5.97;3.08;;;18.00;45.70;;;;;;4815428;29;20248;-83
2022/03/12 02:54:57;;;;;;;6.60;3.20;;;18.00;45.80;;;;;;4830109;29;20192;-86
2022/03/12 02:57:27;;;;;;;4.28;2.88;;;18.00;46.10;;;;;;4815078;29;20652;-85
2022/03/12 03:00:04;;;;;;;7.32;3.15;;;18.00;45.60;;;;;;4831402;29;20189;-86
2022/03/12 03:02:38;;;;;;;4.53;2.70;;;18.00;45.70;;;;;;4832430;29;20192;-86
2022/03/12 03:05:12;;;;;;;5.68;3.30;;;18.00;45.50;;;;;;4817594;29;20219;-86
2022/03/12 03:07:39;;;;;;;4.10;2.97;;;18.00;45.70;;;;;;4816340;29;20193;-84
2022/03/12 03:10:08;;;;;;;3.67;3.00;;;18.00;45.90;;;;;;4830415;29;20196;-83
2022/03/12 03:12:38;;;;;;;6.00;3.25;;;18.00;46.10;;;;;;4815049;29;20740;-84
2022/03/12 03:15:05;;;;;;;5.32;3.22;;;17.90;45.90;;;;;;4814787;29;20189;-85
2022/03/12 03:17:31;;;;;;;4.35;3.15;;;18.00;46.10;;;;;;4850738;29;20594;-85
2022/03/12 03:19:57;;;;;;;3.58;2.83;;;18.00;46.40;;;;;;4827377;29;20256;-86
2022/03/12 03:22:27;;;;;;;5.03;3.28;;;18.00;45.90;;;;;;4827765;29;20292;-86
2022/03/12 03:24:57;;;;;;;5.75;3.20;;;17.90;46.00;;;;;;4811646;29;20186;-87
2022/03/12 03:27:27;;;;;;;3.42;2.90;;;18.00;46.00;;;;;;4811613;29;20189;-86
2022/03/12 03:29:58;;;;;;;5.57;3.00;;;18.00;46.10;;;;;;4826914;29;20185;-85
2022/03/12 03:32:27;;;;;;;4.68;3.30;;;18.00;46.00;;;;;;4811475;29;20307;-86
2022/03/12 03:34:53;;;;;;;6.13;3.15;;;17.90;46.10;;;;;;4811533;29;20270;-85
2022/03/12 03:37:19;;;;;;;4.53;3.13;;;17.90;46.10;;;;;;4827601;29;20263;-83
2022/03/12 03:39:52;;;;;;;4.05;3.10;;;17.90;45.90;;;;;;4842492;29;20184;-86
2022/03/12 03:42:21;;;;;;;4.97;3.33;;;17.90;45.80;;;;;;4811848;29;20538;-85
2022/03/12 03:44:47;;;;;;;6.00;3.33;;;17.90;46.00;;;;;;4842356;29;20272;-84
2022/03/12 03:47:13;;;;;;;4.97;2.97;;;17.90;46.20;;;;;;4842564;29;20633;-84
2022/03/12 03:49:38;;;;;;;4.70;3.17;;;17.90;46.10;;;;;;4842273;29;20201;-86
2022/03/12 03:52:09;;;;;;;4.22;2.90;;;17.90;46.30;;;;;;4827585;29;20232;-87
2022/03/12 03:54:35;;;;;;;4.80;3.00;;;17.90;46.20;;;;;;4826453;29;20200;-84
2022/03/12 03:57:01;;;;;;;4.43;2.95;;;17.90;46.00;;;;;;4841984;29;20260;-85
2022/03/12 03:59:28;;;;;;;5.97;2.88;;;17.90;45.90;;;;;;4826966;29;20209;-86
2022/03/12 04:01:54;;;;;;;5.93;3.20;;;17.90;46.00;;;;;;4842290;29;20178;-83
2022/03/12 04:04:22;;;;;;;6.55;3.13;;;17.90;45.90;;;;;;4841805;29;20165;-83
2022/03/12 04:06:54;;;;;;;4.22;3.05;;;17.90;46.90;;;;;;4841005;29;20630;-84
2022/03/12 04:09:23;;;;;;;6.88;3.42;;;17.80;45.90;;;;;;4825962;29;20193;-85
2022/03/12 04:11:54;;;;;;;5.07;3.65;;;17.90;46.20;;;;;;4810779;29;20284;-84
2022/03/12 04:14:20;;;;;;;4.95;2.70;;;17.90;46.10;;;;;;4826197;29;20185;-84
2022/03/12 04:16:46;;;;;;;5.45;3.13;;;17.90;45.80;;;;;;4851036;29;20228;-84
2022/03/12 04:19:18;;;;;;;4.97;2.85;;;17.90;46.20;;;;;;4847805;29;20161;-84
2022/03/12 04:21:45;;;;;;;5.35;3.33;;;17.90;45.90;;;;;;4832306;29;20192;-85
2022/03/12 04:24:16;;;;;;;5.70;3.30;;;17.90;46.10;;;;;;4880224;29;20218;-84
2022/03/12 04:26:42;;;;;;;5.22;3.03;;;17.90;46.20;;;;;;4817532;29;20252;-84
2022/03/12 04:29:08;;;;;;;4.38;3.33;;;17.80;45.80;;;;;;4863468;29;20164;-84
2022/03/12 04:31:40;;;;;;;5.28;3.20;;;17.90;46.00;;;;;;4863167;29;20171;-84
2022/03/12 04:34:06;;;;;;;4.03;3.15;;;17.90;46.00;;;;;;4817149;29;20228;-86
2022/03/12 04:36:36;;;;;;;5.07;3.17;;;17.90;45.90;;;;;;4847652;29;20175;-86
2022/03/12 04:39:07;;;;;;;4.47;3.00;;;17.90;46.20;;;;;;4832272;29;20192;-85
2022/03/12 04:41:36;;;;;;;4.40;3.08;;;17.90;46.10;;;;;;4832321;29;20184;-84
2022/03/12 04:44:04;;;;;;;4.53;3.20;;;17.90;46.00;;;;;;4847939;29;20172;-86
2022/03/12 04:46:34;;;;;;;7.53;3.30;;;17.90;46.10;;;;;;4863334;29;20154;-85
2022/03/12 04:49:05;;;;;;;5.05;3.22;;;17.80;46.00;;;;;;4832368;29;20687;-83
2022/03/12 04:51:31;;;;;;;4.22;3.17;;;17.80;45.90;;;;;;4831946;29;20219;-87
2022/03/12 04:54:02;;;;;;;5.05;3.08;;;17.90;46.00;;;;;;4863088;29;20239;-85
2022/03/12 04:56:28;;;;;;;4.35;3.15;;;17.90;45.90;;;;;;4816912;29;20200;-85
2022/03/12 04:58:57;;;;;;;5.53;3.10;;;17.90;45.90;;;;;;4863187;29;20251;-87
2022/03/12 05:01:24;;;;;;;4.45;3.00;;;17.80;45.90;;;;;;4817076;29;20193;-84
2022/03/12 05:03:55;;;;;;;4.05;3.00;;;17.90;46.20;;;;;;4848071;29;20164;-85
2022/03/12 05:06:23;;;;;;;4.40;3.10;;;17.80;46.20;;;;;;4816504;29;20592;-84
2022/03/12 05:08:49;;;;;;;4.45;3.10;;;17.80;46.20;;;;;;4847786;29;20649;-85
2022/03/12 05:11:15;;;;;;;4.80;3.30;;;17.80;46.00;;;;;;4847694;29;20173;-86
2022/03/12 05:13:44;;;;;;;3.88;3.13;;;17.80;46.10;;;;;;4847975;29;20204;-85
2022/03/12 05:16:21;;;;;;;6.55;3.15;;;17.80;46.00;;;;;;4817893;29;20196;-83
2022/03/12 05:18:51;;;;;;;4.43;3.05;;;17.80;46.10;;;;;;4845007;29;20343;-87
2022/03/12 05:21:17;;;;;;;7.85;3.22;;;17.80;46.00;;;;;;4814057;29;20273;-85
2022/03/12 05:23:47;;;;;;;5.10;3.38;;;17.80;46.20;;;;;;4845002;29;20591;-85
2022/03/12 05:26:17;;;;;;;4.25;3.15;;;17.80;46.00;;;;;;4844379;29;20190;-87
2022/03/12 05:28:44;;;;;;;5.18;3.50;;;17.90;46.20;;;;;;4829053;29;20672;-86
2022/03/12 05:31:10;;;;;;;5.28;3.15;;;17.80;46.20;;;;;;4845384;29;20157;-85
2022/03/12 05:33:36;;;;;;;5.78;3.22;;;17.90;46.20;;;;;;4844854;29;20615;-84
2022/03/12 05:36:03;;;;;;;4.97;3.20;;;17.80;46.00;;;;;;4845084;29;20166;-86
2022/03/12 05:38:38;;;;;;;5.18;2.97;;;17.80;46.00;;;;;;4830374;29;20194;-85
2022/03/12 05:41:09;;;;;;;5.18;3.08;;;17.80;46.20;;;;;;4829478;29;20276;-85
2022/03/12 05:43:44;;;;;;;5.50;2.90;;;17.90;46.00;;;;;;4845889;29;20170;-84
2022/03/12 05:46:14;;;;;;;4.57;3.00;;;17.80;45.80;;;;;;4830575;29;20687;-85
2022/03/12 05:48:46;;;;;;;4.03;2.88;;;17.90;45.90;;;;;;4846342;29;20208;-86
2022/03/12 05:51:16;;;;;;;5.43;3.15;;;17.90;46.20;;;;;;4830634;29;20261;-85
2022/03/12 05:53:43;;;;;;;7.25;3.00;;;17.80;46.30;;;;;;4815204;29;20213;-87
2022/03/12 05:56:09;;;;;;;4.88;3.10;;;17.80;46.00;;;;;;4844180;29;20626;-85
2022/03/12 05:58:38;;;;;;;5.43;2.83;;;17.80;46.10;;;;;;4843804;29;20218;-84
2022/03/12 06:01:08;;;;;;;6.05;3.20;;;17.80;46.70;;;;;;4844775;29;20222;-84
2022/03/12 06:03:38;;;;;;;5.78;3.40;;;17.80;46.40;;;;;;4843371;29;20197;-84
2022/03/12 06:06:04;;;;;;;4.57;3.00;;;17.80;46.00;;;;;;4843455;29;20684;-85
2022/03/12 06:08:34;;;;;;;5.18;3.30;;;17.80;46.20;;;;;;4828932;29;20177;-84
2022/03/12 06:11:00;;;;;;;6.53;3.13;;;17.80;46.40;;;;;;4828546;29;20193;-84
2022/03/12 06:13:30;;;;;;;5.90;3.17;;;17.90;46.20;;;;;;4844086;29;20646;-85
2022/03/12 06:16:04;;;;;;;4.50;3.10;;;17.70;46.10;;;;;;4829165;29;20310;-86
2022/03/12 06:18:33;;;;;;;3.97;2.92;;;17.70;46.20;;;;;;4865205;29;20216;-85
2022/03/12 06:21:03;;;;;;;4.60;3.38;;;17.70;46.00;;;;;;4852921;29;20637;-83
2022/03/12 06:23:34;;;;;;;7.25;3.90;;;17.80;46.40;;;;;;4833351;29;20216;-85
2022/03/12 06:26:02;;;;;;;5.70;3.40;;;17.80;46.20;;;;;;4815757;29;20749;-86
2022/03/12 06:28:36;;;;;;;3.97;3.00;;;17.80;46.30;;;;;;4846252;29;20173;-86
2022/03/12 06:31:06;;;;;;;5.30;3.08;;;17.70;46.30;;;;;;4817001;29;20207;-86
2022/03/12 06:33:37;;;;;;;4.28;3.13;;;17.80;46.20;;;;;;4830435;29;20751;-86
2022/03/12 06:36:03;;;;;;;4.15;3.30;;;17.80;46.00;;;;;;4830306;29;20185;-86
2022/03/12 06:38:32;;;;;;;3.63;2.83;;;17.80;46.20;;;;;;4861402;29;20157;-83
2022/03/12 06:40:59;;;;;;;6.20;3.40;;;17.80;46.10;;;;;;4830034;29;20682;-84
2022/03/12 06:43:28;;;;;;;5.22;2.97;;;17.80;46.40;;;;;;4829974;29;20267;-84
2022/03/12 06:45:58;;;;;;;4.50;3.30;;;17.90;46.10;;;;;;4815082;29;20299;-84
2022/03/12 06:48:43;;;;;;;3.97;3.17;;;17.90;45.90;;;;;;4845259;29;20181;-84
2022/03/12 06:51:10;;;;;;;3.72;3.13;;;17.90;46.10;;;;;;4850170;29;20188;-84
2022/03/12 06:53:40;;;;;;;3.67;2.95;;;17.90;46.00;;;;;;4846017;29;20207;-86
2022/03/12 06:56:27;;;;;;;5.18;2.97;;;17.90;46.00;;;;;;4829881;29;20200;-86
2022/03/12 06:59:13;;;;;;;4.18;2.83;;;17.90;46.00;;;;;;4860321;29;20220;-84
2022/03/12 07:01:39;;;;;;;5.22;3.30;;;17.90;46.00;;;;;;4860706;29;20211;-85
2022/03/12 07:04:21;;;;;;;4.68;3.30;;;17.90;46.20;;;;;;4860906;29;20193;-87
2022/03/12 07:07:03;;;;;;;6.03;3.15;;;17.90;46.30;;;;;;4814317;29;20412;-86
2022/03/12 07:09:43;;;;;;;4.20;3.10;;;18.00;46.20;;;;;;4814501;29;20231;-86
2022/03/12 07:12:22;;;;;;;7.63;3.35;;;18.00;46.20;;;;;;4814346;29;20575;-86
2022/03/12 07:14:59;;;;;;;6.13;3.13;;;18.00;46.20;;;;;;4844838;29;20260;-84
2022/03/12 07:17:24;;;;;;;4.68;2.92;;;18.00;46.10;;;;;;4836798;29;20228;-85
2022/03/12 07:19:59;;;;;;;4.57;3.20;;;18.00;46.10;;;;;;4842055;29;20521;-84
2022/03/12 07:22:33;;;;;;;5.47;3.00;;;18.00;46.00;;;;;;4826344;29;20184;-86
2022/03/12 07:25:03;;;;;;;5.00;3.25;;;18.00;45.80;;;;;;4826347;29;20591;-86
2022/03/12 07:27:36;;;;;;;4.80;3.20;;;18.10;45.90;;;;;;4811018;29;20193;-86
2022/03/12 07:30:12;;;;;;;4.13;3.20;;;18.10;45.90;;;;;;4826498;29;20178;-86
2022/03/12 07:32:39;;;;;;;5.75;3.10;;;18.00;45.80;;;;;;4811107;29;20220;-86
2022/03/12 07:35:12;;;;;;;6.47;3.40;;;18.10;45.80;;;;;;4826878;29;20173;-84
2022/03/12 07:37:44;;;;;;;3.67;3.00;;;18.10;45.60;;;;;;4826239;29;20668;-87
2022/03/12 07:40:17;;;;;;;5.70;3.28;;;18.10;45.50;;;;;;4826163;29;20197;-85
2022/03/12 07:42:50;;;;;;;7.10;3.30;;;18.20;45.30;;;;;;4810998;29;20200;-85
2022/03/12 07:45:21;;;;;;;4.57;3.20;;;18.20;45.30;;;;;;4811659;29;20224;-86
2022/03/12 07:47:54;;;;;;;4.55;3.20;;;18.20;45.30;;;;;;4811470;29;20650;-85
2022/03/12 07:50:26;;;;;;;5.15;3.53;;;18.20;45.30;;;;;;4812125;29;20575;-85
2022/03/12 07:52:52;;;;;;;5.53;3.33;;;18.20;45.40;;;;;;4827981;29;20220;-86
2022/03/12 07:55:19;;;;;;;5.75;3.35;;;18.10;45.40;;;;;;4827698;29;20558;-87
2022/03/12 07:57:45;;;;;;;6.10;3.47;;;18.20;45.30;;;;;;4842152;29;20172;-84
2022/03/12 08:00:15;;;;;;;3.95;3.10;;;18.30;45.30;;;;;;4846233;29;20173;-85
2022/03/12 08:02:46;;;;;;;8.23;3.35;;;18.30;45.00;;;;;;4799820;29;20479;-86
2022/03/12 08:05:21;;;;;;;5.78;3.20;;;18.40;44.70;;;;;;4829402;29;20200;-86
2022/03/12 08:07:54;;;;;;;5.28;3.05;;;18.40;44.50;;;;;;4828814;29;20208;-84
2022/03/12 08:10:26;;;;;;;7.65;3.55;;;18.40;44.40;;;;;;4820162;29;20189;-85
2022/03/12 08:12:57;;;;;;;10.13;3.05;;;18.50;43.70;;;;;;4813447;29;20727;-85
2022/03/12 08:15:28;;;;;;;4.00;3.00;;;18.70;43.70;;;;;;4844207;29;20161;-84
2022/03/12 08:17:54;;;;;;;5.68;2.85;;;18.70;44.10;;;;;;4821641;29;20233;-84
2022/03/12 08:20:25;;;;;;;9.40;3.10;;;18.70;43.70;;;;;;4843575;29;20225;-83
2022/03/12 08:22:55;;;;;;;5.00;3.20;;;18.70;43.70;;;;;;4844503;29;20233;-85
2022/03/12 08:25:24;;;;;;;6.65;2.90;;;18.80;43.60;;;;;;4831756;29;20185;-85
2022/03/12 08:27:53;;;;;;;5.63;3.20;;;18.70;43.70;;;;;;4846810;29;20185;-83
2022/03/12 08:30:25;;;;;;;4.10;2.88;;;18.80;43.60;;;;;;4833850;29;20234;-81
2022/03/12 08:32:54;;;;;;;5.70;3.08;;;18.80;43.00;;;;;;4810932;29;20270;-83
2022/03/12 08:35:20;;;;;;;12.25;3.30;;;18.90;43.20;;;;;;4810088;29;20205;-85
2022/03/12 08:37:49;;;;;;;3.45;2.67;;;18.90;43.40;;;;;;4794664;29;20182;-85
2022/03/12 08:40:16;;;;;;;4.40;2.90;;;18.90;42.90;;;;;;4809912;29;20235;-84
2022/03/12 08:42:46;;;;;;;4.57;2.85;;;19.00;43.00;;;;;;4795071;29;20189;-85
2022/03/12 08:45:14;;;;;;;6.45;3.13;;;19.00;43.10;;;;;;4809255;29;20190;-86
2022/03/12 08:47:43;;;;;;;4.60;3.03;;;19.00;43.40;;;;;;4828251;29;20293;-85
2022/03/12 08:50:13;;;;;;;4.95;2.92;;;19.00;43.20;;;;;;4816583;29;20186;-82
2022/03/12 08:52:43;;;;;;;5.75;3.47;;;19.10;42.80;;;;;;4817250;29;20283;-86
2022/03/12 08:55:14;;;;;;;7.60;3.03;;;19.00;43.30;;;;;;4819298;29;20198;-85
2022/03/12 08:57:45;;;;;;;7.60;2.95;;;19.00;43.00;;;;;;4802174;29;20559;-84
2022/03/12 09:00:15;;;;;;;6.32;3.30;;;19.00;43.70;;;;;;4817571;29;20205;-82
2022/03/12 09:02:47;;;;;;;9.43;3.20;;;19.00;43.90;;;;;;4818765;29;20194;-87
2022/03/12 09:05:17;;;;;;;6.60;3.17;;;19.10;43.30;;;;;;4833314;29;20193;-85
2022/03/12 09:07:45;;;;;;;11.63;3.10;;;19.10;43.90;;;;;;4851067;29;20192;-86
2022/03/12 09:10:12;;;;;;;5.13;3.10;;;19.10;43.20;;;;;;4850163;29;20250;-86
2022/03/12 09:12:41;;;;;;;7.95;2.78;;;19.20;43.00;;;;;;4835886;29;20201;-86
2022/03/12 09:15:09;;;;;;;8.70;2.80;;;19.20;42.80;;;;;;4831473;29;20208;-84
2022/03/12 09:17:35;;;;;;;9.20;3.53;;;19.20;42.80;;;;;;4815827;29;20300;-84
2022/03/12 09:20:03;;;;;;;10.65;3.03;;;19.30;43.00;;;;;;4850964;29;20182;-88
2022/03/12 09:22:31;;;;;;;6.10;2.80;;;19.20;43.20;;;;;;4834702;29;20283;-84
2022/03/12 09:25:00;;;;;;;7.40;3.20;;;19.30;42.50;;;;;;4832583;29;20240;-84
2022/03/12 09:27:28;;;;;;;8.05;3.00;;;19.20;42.60;;;;;;4820631;29;20209;-84
2022/03/12 09:29:59;;;;;;;7.07;3.10;;;19.30;42.90;;;;;;4848844;29;20694;-83
2022/03/12 09:32:29;;;;;;;9.18;3.00;;;19.20;42.40;;;;;;4837105;29;20217;-83
2022/03/12 09:34:56;;;;;;;8.15;3.13;;;19.20;43.10;;;;;;4851791;29;20216;-84
2022/03/12 09:37:23;;;;;;;8.70;3.30;;;19.30;42.40;;;;;;4832747;29;20285;-83
2022/03/12 09:39:51;;;;;;;7.25;2.70;;;19.20;42.60;;;;;;4834013;29;20188;-82
2022/03/12 09:42:23;;;;;;;9.73;3.10;;;19.30;42.90;;;;;;4817110;29;20193;-83
2022/03/12 09:44:51;;;;;;;8.75;2.90;;;19.30;43.60;;;;;;4832065;29;20195;-86
2022/03/12 09:47:21;;;;;;;6.75;2.58;;;19.30;42.80;;;;;;4828642;29;20194;-86
2022/03/12 09:49:53;;;;;;;5.78;2.78;;;19.40;43.00;;;;;;4815219;29;20642;-85
2022/03/12 09:52:20;;;;;;;4.47;2.65;;;19.30;43.20;;;;;;4844630;29;20244;-83
2022/03/12 09:54:47;;;;;;;5.90;3.05;;;19.30;43.00;;;;;;4832390;29;20197;-84
2022/03/12 09:57:13;;;;;;;7.57;3.08;;;19.30;42.70;;;;;;4847625;29;20180;-84
2022/03/12 09:59:40;;;;;;;13.95;3.17;;;19.30;42.90;;;;;;4843796;29;20248;-84
2022/03/12 10:02:08;;;;;;;17.17;3.20;;;19.30;43.00;;;;;;4845263;29;20498;-85
2022/03/12 10:04:46;;;;;;;9.02;3.00;;;19.40;43.40;;;;;;4829709;29;20181;-86
2022/03/12 10:07:17;;;;;;;9.68;3.08;;;19.30;43.20;;;;;;4847448;29;20272;-86
2022/03/12 10:09:48;;;;;;;6.25;3.10;;;19.30;42.90;;;;;;4836395;29;20181;-85
2022/03/12 10:12:14;;;;;;;10.23;3.13;;;19.30;44.10;;;;;;4837440;29;20237;-83
2022/03/12 10:14:48;;;;;;;11.23;2.97;;;19.30;44.20;;;;;;4837582;29;20177;-85
2022/03/12 10:17:14;;;;;;;7.80;3.30;;;19.20;44.60;;;;;;4817359;29;20221;-86
2022/03/12 10:19:41;;;;;;;7.65;3.00;;;19.20;44.30;;;;;;4832388;29;20181;-84
2022/03/12 10:22:09;;;;;;;10.98;2.78;;;19.20;44.10;;;;;;4832430;29;20202;-84
2022/03/12 10:24:40;;;;;;;8.02;2.78;;;19.20;42.90;;;;;;4848400;29;20158;-84
2022/03/12 10:27:06;;;;;;;5.75;2.80;;;19.10;43.60;;;;;;4830545;29;20209;-85
2022/03/12 10:29:34;;;;;;;4.53;2.95;;;19.20;43.40;;;;;;4846467;29;20186;-85
2022/03/12 10:32:23;;;;;;;8.48;3.20;;;19.10;43.00;;;;;;4846375;29;20249;-85
2022/03/12 10:34:56;;;;;;;9.15;2.85;;;19.20;43.80;;;;;;4847402;29;20169;-83
2022/03/12 10:37:24;;;;;;;7.30;3.00;;;19.20;43.80;;;;;;4832935;29;20194;-84
2022/03/12 10:40:07;;;;;;;7.72;2.90;;;19.20;43.60;;;;;;4846821;29;20165;-84
2022/03/12 10:42:33;;;;;;;10.65;2.90;;;19.20;43.20;;;;;;4831051;29;20173;-85
2022/03/12 10:45:16;;;;;;;7.95;2.88;;;19.30;43.00;;;;;;4831415;29;20660;-85
2022/03/12 10:47:45;;;;;;;4.35;2.70;;;19.30;42.90;;;;;;4845387;29;20158;-86
2022/03/12 10:50:17;;;;;;;7.85;2.80;;;19.20;43.00;;;;;;4831490;29;20205;-86
2022/03/12 10:52:49;;;;;;;4.80;2.50;;;19.30;43.20;;;;;;4830636;29;20193;-83
2022/03/12 10:55:19;;;;;;;5.00;2.95;;;19.30;43.10;;;;;;4845928;29;20170;-84
2022/03/12 10:57:59;;;;;;;6.93;3.13;;;19.30;44.00;;;;;;4846677;29;20157;-85
2022/03/12 11:00:30;;;;;;;7.03;3.10;;;19.20;43.50;;;;;;4830183;29;20256;-85
2022/03/12 11:03:03;;;;;;;6.95;2.88;;;19.20;44.10;;;;;;4844623;29;20189;-84
2022/03/12 11:05:34;;;;;;;6.80;3.03;;;19.20;44.10;;;;;;4815343;29;20638;-86
2022/03/12 11:08:17;;;;;;;9.77;3.17;;;19.20;44.00;;;;;;4830894;29;20205;-85
2022/03/12 11:10:50;;;;;;;8.10;2.80;;;19.20;44.10;;;;;;4849398;29;20161;-85
2022/03/12 11:13:25;;;;;;;4.25;2.90;;;19.10;43.50;;;;;;4835359;29;20689;-87
2022/03/12 11:16:05;;;;;;;6.25;2.75;;;19.20;43.50;;;;;;4836666;29;20193;-85
2022/03/12 11:18:37;;;;;;;4.25;2.35;;;19.30;43.40;;;;;;4852174;29;20238;-86
2022/03/12 11:21:03;;;;;;;8.02;3.15;;;19.30;43.80;;;;;;4822159;29;20673;-87
2022/03/12 11:23:30;;;;;;;3.63;2.72;;;19.30;43.50;;;;;;4870508;29;20175;-88
2022/03/12 11:26:06;;;;;;;6.60;2.60;;;19.30;43.50;;;;;;4854614;29;20176;-86
2022/03/12 11:28:34;;;;;;;7.22;2.63;;;19.20;42.80;;;;;;4852667;29;20218;-84
2022/03/12 11:31:04;;;;;;;4.75;2.97;;;19.20;43.50;;;;;;4854120;29;20184;-83
2022/03/12 11:33:31;;;;;;;6.82;2.65;;;19.20;44.20;;;;;;4852954;29;20208;-85
2022/03/12 11:35:59;;;;;;;3.40;2.65;;;19.20;44.50;;;;;;4867293;29;20236;-84
2022/03/12 11:38:29;;;;;;;6.65;2.90;;;19.20;43.80;;;;;;4865962;29;20156;-86
2022/03/12 11:41:09;;;;;;;6.05;2.80;;;19.20;44.70;;;;;;4835100;29;20244;-86
2022/03/12 11:43:42;;;;;;;4.10;2.90;;;19.20;45.00;;;;;;4865566;29;20215;-85
2022/03/12 11:46:11;;;;;;;5.30;2.90;;;19.20;44.50;;;;;;4882446;29;20192;-85
2022/03/12 11:48:38;;;;;;;7.05;2.75;;;19.20;44.70;;;;;;4865920;29;20251;-87
2022/03/12 11:51:17;;;;;;;10.15;3.08;;;19.20;44.80;;;;;;4864343;29;20168;-85
2022/03/12 11:53:45;;;;;;;4.90;2.60;;;19.20;44.80;;;;;;4881818;29;20196;-86
2022/03/12 11:56:12;;;;;;;7.95;3.08;;;19.20;42.60;;;;;;4864427;29;20180;-87
2022/03/12 11:58:38;;;;;;;7.32;2.85;;;19.20;43.50;;;;;;4849803;29;20523;-85
2022/03/12 12:01:05;;;;;;;8.20;2.95;;;19.20;44.80;;;;;;4848847;29;20235;-86
2022/03/12 12:03:31;;;;;;;7.38;2.85;;;19.20;44.60;;;;;;4850047;29;20207;-85
2022/03/12 12:06:01;;;;;;;7.05;3.10;;;19.20;43.90;;;;;;4849775;29;20175;-84
2022/03/12 12:08:27;;;;;;;7.15;2.90;;;19.20;44.20;;;;;;4834353;29;20184;-86
2022/03/12 12:10:58;;;;;;;4.60;2.83;;;19.20;44.20;;;;;;4854155;29;20199;-83
2022/03/12 12:13:24;;;;;;;8.68;2.97;;;19.20;44.60;;;;;;4850486;29;20214;-85
2022/03/12 12:15:55;;;;;;;6.95;2.63;;;19.20;43.40;;;;;;4864251;29;20176;-85
2022/03/12 12:18:22;;;;;;;5.47;2.75;;;19.20;43.50;;;;;;4814773;29;20780;-85
2022/03/12 12:20:48;;;;;;;8.93;2.95;;;19.20;43.90;;;;;;4842570;29;20181;-86
2022/03/12 12:23:17;;;;;;;8.52;2.70;;;19.20;43.50;;;;;;4826988;29;20177;-85
2022/03/12 12:25:43;;;;;;;6.82;2.88;;;19.30;43.50;;;;;;4835952;29;20181;-84
2022/03/12 12:28:18;;;;;;;6.55;2.90;;;19.30;43.40;;;;;;4845906;29;20169;-85
2022/03/12 12:30:46;;;;;;;4.95;3.10;;;19.30;43.40;;;;;;4830747;29;20173;-85
2022/03/12 12:33:23;;;;;;;3.85;2.63;;;19.30;43.70;;;;;;4824709;29;20248;-83
2022/03/12 12:36:09;;;;;;;9.30;3.05;;;19.30;43.50;;;;;;4833201;29;20193;-82
2022/03/12 12:38:43;;;;;;;4.63;2.72;;;19.40;44.70;;;;;;4817321;29;20186;-85
2022/03/12 12:41:10;;;;;;;5.82;2.47;;;19.40;44.50;;;;;;4817244;29;20201;-83
2022/03/12 12:43:39;;;;;;;5.55;2.78;;;19.40;44.30;;;;;;4846093;29;20184;-83
2022/03/12 12:46:13;;;;;;;7.57;2.70;;;19.40;43.80;;;;;;4838500;29;20211;-83
2022/03/12 12:48:48;;;;;;;14.10;2.70;;;19.40;43.80;;;;;;4834643;29;20734;-84
2022/03/12 12:51:26;;;;;;;4.20;2.33;;;19.40;43.40;;;;;;4832410;29;20188;-83
2022/03/12 12:53:53;;;;;;;4.18;2.47;;;19.40;42.80;;;;;;4825189;29;20269;-86
2022/03/12 12:56:28;;;;;;;7.75;2.72;;;19.40;43.00;;;;;;4845356;29;20166;-85
2022/03/12 12:59:11;;;;;;;6.28;2.63;;;19.40;42.70;;;;;;4824756;29;20204;-85